Time,TemperatureF,DewpointF,PressureIn,WindDirection,WindDirectionDegrees,WindSpeedMPH,WindSpeedGustMPH,Humidity,HourlyPrecipIn,Conditions,Clouds,dailyrainin,SoftwareType,DateUTC
2013-06-26 00:01:00,73.5,69.7,29.90,SSW,199,0.0,0.0,88,0.00,,---,0.00,VWS V14.01,2013-06-26 04:01:00,
2013-06-26 00:06:00,73.1,69.3,29.91,NNW,346,1.0,4.0,88,0.00,,---,0.00,VWS V14.01,2013-06-26 04:06:00,
2013-06-26 00:11:00,72.8,69.0,29.91,NNW,348,2.0,4.0,88,0.00,,---,0.00,VWS V14.01,2013-06-26 04:11:00,
2013-06-26 00:16:00,72.7,69.3,29.92,North,355,3.0,6.0,89,0.00,,---,0.00,VWS V14.01,2013-06-26 04:16:00,
2013-06-26 00:21:00,73.0,69.6,29.92,North,5,1.0,7.0,89,0.00,,---,0.00,VWS V14.01,2013-06-26 04:21:00,
2013-06-26 00:26:00,73.3,69.9,29.92,NNE,18,1.0,7.0,89,0.00,,---,0.00,VWS V14.01,2013-06-26 04:26:00,
2013-06-26 00:31:00,73.4,70.0,29.92,NNE,18,1.0,1.0,89,0.00,,---,0.00,VWS V14.01,2013-06-26 04:31:00,
2013-06-26 00:36:00,73.4,70.0,29.92,NNE,18,0.0,2.0,89,0.00,,---,0.00,VWS V14.01,2013-06-26 04:36:00,
2013-06-26 00:41:00,73.3,69.9,29.92,NNE,18,0.0,2.0,89,0.00,,---,0.00,VWS V14.01,2013-06-26 04:41:00,
2013-06-26 00:46:00,73.1,69.7,29.92,NNE,18,0.0,2.0,89,0.00,,---,0.00,VWS V14.01,2013-06-26 04:46:00,
2013-06-26 00:51:00,73.0,69.6,29.91,NNE,18,0.0,2.0,89,0.00,,---,0.00,VWS V14.01,2013-06-26 04:51:00,
2013-06-26 00:56:00,72.9,69.5,29.91,NNE,18,0.0,2.0,89,0.00,,---,0.00,VWS V14.01,2013-06-26 04:56:00,
2013-06-26 01:01:00,72.8,69.4,29.91,NNE,18,0.0,0.0,89,0.00,,---,0.00,VWS V14.01,2013-06-26 05:01:00,
2013-06-26 01:06:00,72.8,69.4,29.91,NNE,18,0.0,0.0,89,0.00,,---,0.00,VWS V14.01,2013-06-26 05:06:00,
2013-06-26 01:11:00,72.7,69.3,29.91,NNE,18,0.0,1.0,89,0.00,,---,0.00,VWS V14.01,2013-06-26 05:11:00,
2013-06-26 01:16:00,72.6,69.5,29.91,NNE,18,0.0,1.0,90,0.00,,---,0.00,VWS V14.01,2013-06-26 05:16:00,
2013-06-26 01:21:00,72.5,69.4,29.90,NNE,18,0.0,1.0,90,0.00,,---,0.00,VWS V14.01,2013-06-26 05:21:00,
2013-06-26 01:26:00,72.4,69.3,29.91,NNE,18,0.0,1.0,90,0.00,,---,0.00,VWS V14.01,2013-06-26 05:26:00,
2013-06-26 01:31:00,72.2,69.1,29.91,NNE,17,1.0,1.0,90,0.00,,---,0.00,VWS V14.01,2013-06-26 05:31:00,
2013-06-26 01:36:00,72.1,69.0,29.91,NNE,17,0.0,3.0,90,0.00,,---,0.00,VWS V14.01,2013-06-26 05:36:00,
2013-06-26 01:41:00,72.1,69.0,29.91,NNE,17,0.0,3.0,90,0.00,,---,0.00,VWS V14.01,2013-06-26 05:41:00,
2013-06-26 01:46:00,72.2,69.1,29.91,NNE,17,0.0,3.0,90,0.00,,---,0.00,VWS V14.01,2013-06-26 05:46:00,
2013-06-26 01:51:00,72.2,69.4,29.91,NNE,18,0.0,3.0,91,0.00,,---,0.00,VWS V14.01,2013-06-26 05:51:00,
2013-06-26 01:56:00,72.2,69.4,29.91,NNE,18,0.0,3.0,91,0.00,,---,0.00,VWS V14.01,2013-06-26 05:56:00,
2013-06-26 02:01:00,72.1,69.3,29.91,NNE,18,0.0,1.0,91,0.00,,---,0.00,VWS V14.01,2013-06-26 06:01:00,
2013-06-26 02:06:00,72.0,69.2,29.91,NNE,18,0.0,1.0,91,0.00,,---,0.00,VWS V14.01,2013-06-26 06:06:00,
2013-06-26 02:11:00,71.8,68.7,29.91,ENE,62,2.0,3.0,90,0.00,,---,0.00,VWS V14.01,2013-06-26 06:11:00,
2013-06-26 02:16:00,71.6,68.8,29.91,ENE,61,3.0,4.0,91,0.00,,---,0.00,VWS V14.01,2013-06-26 06:16:00,
2013-06-26 02:21:00,71.6,68.8,29.91,ENE,62,2.0,4.0,91,0.00,,---,0.00,VWS V14.01,2013-06-26 06:21:00,
2013-06-26 02:25:00,71.7,68.9,29.90,ENE,62,0.0,4.0,91,0.00,,---,0.00,VWS V14.01,2013-06-26 06:25:00,
2013-06-26 02:30:00,71.7,68.9,29.90,ENE,62,0.0,0.0,91,0.00,,---,0.00,VWS V14.01,2013-06-26 06:30:00,
2013-06-26 02:35:00,71.6,68.8,29.90,ENE,62,0.0,0.0,91,0.00,,---,0.00,VWS V14.01,2013-06-26 06:35:00,
2013-06-26 02:40:00,71.5,68.7,29.89,ENE,61,0.0,0.0,91,0.00,,---,0.00,VWS V14.01,2013-06-26 06:40:00,
2013-06-26 02:45:00,71.4,68.6,29.90,ENE,62,0.0,0.0,91,0.00,,---,0.00,VWS V14.01,2013-06-26 06:45:00,
2013-06-26 02:50:00,71.3,68.5,29.90,ENE,61,0.0,0.0,91,0.00,,---,0.00,VWS V14.01,2013-06-26 06:50:00,
2013-06-26 02:55:00,71.3,68.5,29.89,ENE,62,0.0,0.0,91,0.00,,---,0.00,VWS V14.01,2013-06-26 06:55:00,
2013-06-26 03:00:00,71.2,68.4,29.90,ENE,62,0.0,0.0,91,0.00,,---,0.00,VWS V14.01,2013-06-26 07:00:00,
2013-06-26 03:05:00,71.1,68.3,29.90,ENE,62,0.0,0.0,91,0.00,,---,0.00,VWS V14.01,2013-06-26 07:05:00,
2013-06-26 03:10:00,71.0,68.2,29.89,ENE,61,0.0,0.0,91,0.00,,---,0.00,VWS V14.01,2013-06-26 07:10:00,
2013-06-26 03:15:00,71.0,68.2,29.89,ENE,61,0.0,1.0,91,0.00,,---,0.00,VWS V14.01,2013-06-26 07:15:00,
2013-06-26 03:20:00,71.0,68.2,29.89,ENE,62,0.0,1.0,91,0.00,,---,0.00,VWS V14.01,2013-06-26 07:20:00,
2013-06-26 03:25:00,70.9,68.2,29.90,ENE,62,0.0,1.0,91,0.00,,---,0.00,VWS V14.01,2013-06-26 07:25:00,
2013-06-26 03:30:00,70.8,68.1,29.90,ENE,62,0.0,0.0,91,0.00,,---,0.00,VWS V14.01,2013-06-26 07:30:00,
2013-06-26 03:35:00,70.8,68.1,29.89,ENE,61,0.0,1.0,91,0.00,,---,0.00,VWS V14.01,2013-06-26 07:35:00,
2013-06-26 03:40:00,70.9,68.2,29.89,ENE,62,0.0,1.0,91,0.00,,---,0.00,VWS V14.01,2013-06-26 07:40:00,
2013-06-26 03:45:00,70.9,68.2,29.89,ENE,62,0.0,1.0,91,0.00,,---,0.00,VWS V14.01,2013-06-26 07:45:00,
2013-06-26 03:50:00,70.9,68.2,29.89,ENE,62,0.0,1.0,91,0.00,,---,0.00,VWS V14.01,2013-06-26 07:50:00,
2013-06-26 03:55:00,70.9,68.2,29.88,ENE,62,0.0,1.0,91,0.00,,---,0.00,VWS V14.01,2013-06-26 07:55:00,
2013-06-26 04:00:00,70.8,68.1,29.89,ENE,62,0.0,0.0,91,0.00,,---,0.00,VWS V14.01,2013-06-26 08:00:00,
2013-06-26 04:05:00,70.7,67.9,29.90,ENE,62,0.0,1.0,91,0.00,,---,0.00,VWS V14.01,2013-06-26 08:05:00,
2013-06-26 04:10:00,70.6,67.8,29.89,ENE,62,0.0,1.0,91,0.00,,---,0.00,VWS V14.01,2013-06-26 08:10:00,
2013-06-26 04:15:00,70.5,67.8,29.89,ENE,61,0.0,1.0,91,0.00,,---,0.00,VWS V14.01,2013-06-26 08:15:00,
2013-06-26 04:20:00,70.4,67.7,29.89,ENE,62,0.0,1.0,91,0.00,,---,0.00,VWS V14.01,2013-06-26 08:20:00,
2013-06-26 04:25:00,70.2,67.4,29.90,ENE,62,0.0,1.0,91,0.00,,---,0.00,VWS V14.01,2013-06-26 08:25:00,
2013-06-26 04:30:00,70.1,67.4,29.90,ENE,61,0.0,0.0,91,0.00,,---,0.00,VWS V14.01,2013-06-26 08:30:00,
2013-06-26 04:35:00,69.9,67.5,29.90,ENE,62,0.0,0.0,92,0.00,,---,0.00,VWS V14.01,2013-06-26 08:35:00,
2013-06-26 04:40:00,69.8,67.4,29.90,ENE,62,0.0,0.0,92,0.00,,---,0.00,VWS V14.01,2013-06-26 08:40:00,
2013-06-26 04:45:00,69.8,67.1,29.90,ENE,62,0.0,1.0,91,0.00,,---,0.00,VWS V14.01,2013-06-26 08:45:00,
2013-06-26 04:50:00,69.7,67.0,29.91,ENE,61,0.0,1.0,91,0.00,,---,0.00,VWS V14.01,2013-06-26 08:50:00,
2013-06-26 04:55:00,69.5,67.1,29.91,ENE,62,0.0,1.0,92,0.00,,---,0.00,VWS V14.01,2013-06-26 08:55:00,
2013-06-26 05:00:00,69.5,67.1,29.91,ENE,61,0.0,1.0,92,0.00,,---,0.00,VWS V14.01,2013-06-26 09:00:00,
2013-06-26 05:05:00,69.3,66.9,29.90,ENE,62,0.0,0.0,92,0.00,,---,0.00,VWS V14.01,2013-06-26 09:05:00,
2013-06-26 05:10:00,69.3,66.9,29.91,ENE,62,0.0,1.0,92,0.00,,---,0.00,VWS V14.01,2013-06-26 09:10:00,
2013-06-26 05:15:00,69.2,66.8,29.90,ENE,61,0.0,2.0,92,0.00,,---,0.00,VWS V14.01,2013-06-26 09:15:00,
2013-06-26 05:20:00,69.2,66.8,29.91,ENE,62,0.0,2.0,92,0.00,,---,0.00,VWS V14.01,2013-06-26 09:20:00,
2013-06-26 05:25:00,69.1,66.7,29.91,ENE,62,0.0,2.0,92,0.00,,---,0.00,VWS V14.01,2013-06-26 09:25:00,
2013-06-26 05:30:00,69.0,66.6,29.91,ENE,62,0.0,2.0,92,0.00,,---,0.00,VWS V14.01,2013-06-26 09:30:00,
2013-06-26 05:35:00,69.0,66.6,29.91,ENE,62,0.0,0.0,92,0.00,,---,0.00,VWS V14.01,2013-06-26 09:35:00,
2013-06-26 05:40:00,68.8,66.4,29.91,ENE,61,0.0,0.0,92,0.00,,---,0.00,VWS V14.01,2013-06-26 09:40:00,
2013-06-26 05:45:00,68.7,66.3,29.91,ENE,63,0.0,0.0,92,0.00,,---,0.00,VWS V14.01,2013-06-26 09:45:00,
2013-06-26 05:50:00,68.6,66.2,29.91,ENE,63,0.0,0.0,92,0.00,,---,0.00,VWS V14.01,2013-06-26 09:50:00,
2013-06-26 05:55:00,68.6,66.2,29.91,ENE,63,0.0,0.0,92,0.00,,---,0.00,VWS V14.01,2013-06-26 09:55:00,
2013-06-26 06:00:00,68.6,66.2,29.91,ENE,63,0.0,0.0,92,0.00,,---,0.00,VWS V14.01,2013-06-26 10:00:00,
2013-06-26 06:05:00,68.4,66.0,29.92,North,355,0.0,4.0,92,0.00,,---,0.00,VWS V14.01,2013-06-26 10:05:00,
2013-06-26 06:10:00,68.3,65.9,29.92,North,355,0.0,4.0,92,0.00,,---,0.00,VWS V14.01,2013-06-26 10:10:00,
2013-06-26 06:15:00,68.6,66.2,29.92,North,355,1.0,4.0,92,0.00,,---,0.00,VWS V14.01,2013-06-26 10:15:00,
2013-06-26 06:20:00,68.6,66.2,29.92,North,360,2.0,4.0,92,0.00,,---,0.00,VWS V14.01,2013-06-26 10:20:00,
2013-06-26 06:25:00,68.5,66.1,29.92,North,360,0.0,4.0,92,0.00,,---,0.00,VWS V14.01,2013-06-26 10:25:00,
2013-06-26 06:30:00,68.4,66.0,29.92,North,360,0.0,4.0,92,0.00,,---,0.00,VWS V14.01,2013-06-26 10:30:00,
2013-06-26 06:35:00,68.4,66.0,29.92,North,5,3.0,3.0,92,0.00,,---,0.00,VWS V14.01,2013-06-26 10:35:00,
2013-06-26 06:40:00,68.4,66.0,29.92,North,5,0.0,3.0,92,0.00,,---,0.00,VWS V14.01,2013-06-26 10:40:00,
2013-06-26 06:45:00,68.4,66.0,29.92,North,5,0.0,3.0,92,0.00,,---,0.00,VWS V14.01,2013-06-26 10:45:00,
2013-06-26 06:50:00,68.5,66.1,29.92,North,5,0.0,3.0,92,0.00,,---,0.00,VWS V14.01,2013-06-26 10:50:00,
2013-06-26 06:55:00,68.5,66.1,29.92,North,5,0.0,3.0,92,0.00,,---,0.00,VWS V14.01,2013-06-26 10:55:00,
2013-06-26 07:00:00,68.6,66.2,29.92,ESE,113,0.0,3.0,92,0.00,,---,0.00,VWS V14.01,2013-06-26 11:00:00,
2013-06-26 07:05:00,68.8,66.4,29.93,ESE,113,0.0,1.0,92,0.00,,---,0.00,VWS V14.01,2013-06-26 11:05:00,
2013-06-26 07:10:00,69.1,66.7,29.92,ESE,114,0.0,1.0,92,0.00,,---,0.00,VWS V14.01,2013-06-26 11:10:00,
2013-06-26 07:15:00,69.4,67.0,29.93,ESE,114,0.0,1.0,92,0.00,,---,0.00,VWS V14.01,2013-06-26 11:15:00,
2013-06-26 07:20:00,69.7,67.3,29.92,ESE,114,0.0,2.0,92,0.00,,---,0.00,VWS V14.01,2013-06-26 11:20:00,
2013-06-26 07:25:00,70.0,67.6,29.92,NW,311,0.0,2.0,92,0.00,,---,0.00,VWS V14.01,2013-06-26 11:25:00,
2013-06-26 07:30:00,70.3,67.9,29.92,NW,312,0.0,2.0,92,0.00,,---,0.00,VWS V14.01,2013-06-26 11:30:00,
2013-06-26 07:35:00,70.5,68.1,29.92,NW,311,1.0,1.0,92,0.00,,---,0.00,VWS V14.01,2013-06-26 11:35:00,
2013-06-26 07:40:00,70.8,68.4,29.92,NW,312,0.0,1.0,92,0.00,,---,0.00,VWS V14.01,2013-06-26 11:40:00,
2013-06-26 07:45:00,71.0,68.6,29.92,WSW,244,0.0,1.0,92,0.00,,---,0.00,VWS V14.01,2013-06-26 11:45:00,
2013-06-26 07:50:00,71.3,68.9,29.92,WSW,244,0.0,1.0,92,0.00,,---,0.00,VWS V14.01,2013-06-26 11:50:00,
2013-06-26 07:55:00,71.8,69.3,29.91,ENE,59,0.0,1.0,92,0.00,,---,0.00,VWS V14.01,2013-06-26 11:55:00,
2013-06-26 08:00:00,72.3,69.8,29.91,WSW,248,0.0,1.0,92,0.00,,---,0.00,VWS V14.01,2013-06-26 12:00:00,
2013-06-26 08:05:00,72.9,70.4,29.92,WSW,254,0.0,1.0,92,0.00,,---,0.00,VWS V14.01,2013-06-26 12:05:00,
2013-06-26 08:10:00,73.4,70.6,29.92,WSW,254,0.0,2.0,91,0.00,,---,0.00,VWS V14.01,2013-06-26 12:10:00,
2013-06-26 08:15:00,73.8,71.0,29.91,WSW,253,0.0,2.0,91,0.00,,---,0.00,VWS V14.01,2013-06-26 12:15:00,
2013-06-26 08:20:00,74.2,71.1,29.91,WSW,253,0.0,2.0,90,0.00,,---,0.00,VWS V14.01,2013-06-26 12:20:00,
2013-06-26 08:25:00,74.6,71.5,29.92,WSW,253,0.0,2.0,90,0.00,,---,0.00,VWS V14.01,2013-06-26 12:25:00,
2013-06-26 08:30:00,74.9,71.4,29.91,WSW,257,2.0,3.0,89,0.00,,---,0.00,VWS V14.01,2013-06-26 12:30:00,
2013-06-26 08:35:00,75.1,71.6,29.91,West,267,0.0,3.0,89,0.00,,---,0.00,VWS V14.01,2013-06-26 12:35:00,
2013-06-26 08:40:00,75.5,71.7,29.91,West,267,0.0,3.0,88,0.00,,---,0.00,VWS V14.01,2013-06-26 12:40:00,
2013-06-26 08:45:00,75.6,71.1,29.91,North,9,2.0,3.0,86,0.00,,---,0.00,VWS V14.01,2013-06-26 12:45:00,
2013-06-26 08:50:00,75.4,70.6,29.92,NNW,329,1.0,4.0,85,0.00,,---,0.00,VWS V14.01,2013-06-26 12:50:00,
2013-06-26 08:55:00,75.5,71.0,29.91,NNW,329,2.0,4.0,86,0.00,,---,0.00,VWS V14.01,2013-06-26 12:55:00,
2013-06-26 09:00:00,76.0,71.2,29.91,NNW,329,2.0,4.0,85,0.00,,---,0.00,VWS V14.01,2013-06-26 13:00:00,
2013-06-26 09:05:00,76.4,71.2,29.92,NNW,329,0.0,1.0,84,0.00,,---,0.00,VWS V14.01,2013-06-26 13:05:00,
2013-06-26 09:10:00,77.1,71.5,29.91,NW,311,0.0,4.0,83,0.00,,---,0.00,VWS V14.01,2013-06-26 13:10:00,
2013-06-26 09:15:00,77.7,72.1,29.91,SSW,194,1.0,4.0,83,0.00,,---,0.00,VWS V14.01,2013-06-26 13:15:00,
2013-06-26 09:20:00,78.1,72.2,29.91,SSE,156,0.0,4.0,82,0.00,,---,0.00,VWS V14.01,2013-06-26 13:20:00,
2013-06-26 09:25:00,78.7,72.0,29.91,South,176,1.0,4.0,80,0.00,,---,0.00,VWS V14.01,2013-06-26 13:25:00,
2013-06-26 09:30:00,79.0,72.3,29.90,SW,225,2.0,4.0,80,0.00,,---,0.00,VWS V14.01,2013-06-26 13:30:00,
2013-06-26 09:35:00,79.3,72.2,29.90,WSW,258,0.0,4.0,79,0.00,,---,0.00,VWS V14.01,2013-06-26 13:35:00,
2013-06-26 09:40:00,79.4,72.3,29.90,WSW,249,2.0,5.0,79,0.00,,---,0.00,VWS V14.01,2013-06-26 13:40:00,
2013-06-26 09:45:00,79.4,72.7,29.90,SSW,211,2.0,5.0,80,0.00,,---,0.00,VWS V14.01,2013-06-26 13:45:00,
2013-06-26 09:49:00,79.6,72.5,29.90,SSW,211,0.0,5.0,79,0.00,,---,0.00,VWS V14.01,2013-06-26 13:49:00,
2013-06-26 09:54:00,79.7,72.6,29.90,WNW,299,1.0,5.0,79,0.00,,---,0.00,VWS V14.01,2013-06-26 13:54:00,
2013-06-26 09:59:00,80.1,73.0,29.90,WNW,299,0.0,5.0,79,0.00,,---,0.00,VWS V14.01,2013-06-26 13:59:00,
2013-06-26 10:04:00,81.1,73.6,29.90,WNW,299,1.0,1.0,78,0.00,,---,0.00,VWS V14.01,2013-06-26 14:04:00,
2013-06-26 10:09:00,82.0,73.7,29.89,WNW,299,0.0,1.0,76,0.00,,---,0.00,VWS V14.01,2013-06-26 14:09:00,
2013-06-26 10:14:00,82.8,74.5,29.89,WNW,296,0.0,3.0,76,0.00,,---,0.00,VWS V14.01,2013-06-26 14:14:00,
2013-06-26 10:19:00,83.1,74.0,29.89,SE,138,2.0,3.0,74,0.00,,---,0.00,VWS V14.01,2013-06-26 14:19:00,
2013-06-26 10:24:00,83.1,73.6,29.89,NW,319,1.0,3.0,73,0.00,,---,0.00,VWS V14.01,2013-06-26 14:24:00,
2013-06-26 10:29:00,83.0,73.9,29.89,SSW,203,0.0,3.0,74,0.00,,---,0.00,VWS V14.01,2013-06-26 14:29:00,
2013-06-26 10:34:00,83.3,73.8,29.89,WSW,241,2.0,4.0,73,0.00,,---,0.00,VWS V14.01,2013-06-26 14:34:00,
2013-06-26 10:39:00,83.0,73.5,29.89,WNW,299,0.0,5.0,73,0.00,,---,0.00,VWS V14.01,2013-06-26 14:39:00,
2013-06-26 10:44:00,83.4,74.2,29.89,SW,219,1.0,5.0,74,0.00,,---,0.00,VWS V14.01,2013-06-26 14:44:00,
2013-06-26 10:49:00,84.0,73.6,29.89,WSW,258,1.0,5.0,71,0.00,,---,0.00,VWS V14.01,2013-06-26 14:49:00,
2013-06-26 10:54:00,84.6,73.7,29.88,West,264,1.0,5.0,70,0.00,,---,0.00,VWS V14.01,2013-06-26 14:54:00,
2013-06-26 10:59:00,85.0,73.7,29.88,SSW,201,1.0,5.0,69,0.00,,---,0.00,VWS V14.01,2013-06-26 14:59:00,
2013-06-26 11:04:00,85.4,73.6,29.88,South,182,1.0,5.0,68,0.00,,---,0.00,VWS V14.01,2013-06-26 15:04:00,
2013-06-26 11:09:00,86.0,74.2,29.88,WNW,297,2.0,5.0,68,0.00,,---,0.00,VWS V14.01,2013-06-26 15:09:00,
2013-06-26 11:14:00,86.0,74.2,29.88,SW,226,2.0,6.0,68,0.00,,---,0.00,VWS V14.01,2013-06-26 15:14:00,
2013-06-26 11:19:00,86.1,73.4,29.88,South,176,4.0,6.0,66,0.00,,---,0.00,VWS V14.01,2013-06-26 15:19:00,
2013-06-26 11:24:00,86.3,73.6,29.88,South,188,2.0,8.0,66,0.00,,---,0.00,VWS V14.01,2013-06-26 15:24:00,
2013-06-26 11:29:00,86.4,72.8,29.88,SSE,163,3.0,8.0,64,0.00,,---,0.00,VWS V14.01,2013-06-26 15:29:00,
2013-06-26 11:34:00,86.2,73.5,29.88,WNW,288,1.0,5.0,66,0.00,,---,0.00,VWS V14.01,2013-06-26 15:34:00,
2013-06-26 11:39:00,86.9,73.3,29.88,WSW,240,0.0,5.0,64,0.00,,---,0.00,VWS V14.01,2013-06-26 15:39:00,
2013-06-26 11:44:00,87.6,72.5,29.88,WSW,248,6.0,7.0,61,0.00,,---,0.00,VWS V14.01,2013-06-26 15:44:00,
2013-06-26 11:49:00,87.5,72.4,29.88,SSW,201,0.0,7.0,61,0.00,,---,0.00,VWS V14.01,2013-06-26 15:49:00,
2013-06-26 11:54:00,87.9,73.3,29.88,SW,222,1.0,7.0,62,0.00,,---,0.00,VWS V14.01,2013-06-26 15:54:00,
2013-06-26 11:59:00,88.4,72.8,29.88,NW,313,1.0,7.0,60,0.00,,---,0.00,VWS V14.01,2013-06-26 15:59:00,
2013-06-26 12:04:00,88.4,72.3,29.88,WSW,244,1.0,5.0,59,0.00,,---,0.00,VWS V14.01,2013-06-26 16:04:00,
2013-06-26 12:09:00,88.4,71.8,29.88,WSW,256,3.0,6.0,58,0.00,,---,0.00,VWS V14.01,2013-06-26 16:09:00,
2013-06-26 12:14:00,88.2,73.1,29.88,WSW,250,2.0,6.0,61,0.00,,---,0.00,VWS V14.01,2013-06-26 16:14:00,
2013-06-26 12:19:00,87.9,73.3,29.88,WNW,301,0.0,10.0,62,0.00,,---,0.00,VWS V14.01,2013-06-26 16:19:00,
2013-06-26 12:24:00,88.5,72.3,29.88,South,179,2.0,10.0,59,0.00,,---,0.00,VWS V14.01,2013-06-26 16:24:00,
2013-06-26 12:29:00,88.3,73.2,29.88,SW,233,0.0,10.0,61,0.00,,---,0.00,VWS V14.01,2013-06-26 16:29:00,
2013-06-26 12:34:00,87.7,72.6,29.88,NW,305,1.0,5.0,61,0.00,,---,0.00,VWS V14.01,2013-06-26 16:34:00,
2013-06-26 12:39:00,87.2,72.1,29.88,WNW,300,0.0,5.0,61,0.00,,---,0.00,VWS V14.01,2013-06-26 16:39:00,
2013-06-26 12:44:00,87.5,72.9,29.88,South,176,3.0,5.0,62,0.00,,---,0.00,VWS V14.01,2013-06-26 16:44:00,
2013-06-26 12:49:00,87.5,72.9,29.87,South,174,0.0,5.0,62,0.00,,---,0.00,VWS V14.01,2013-06-26 16:49:00,
2013-06-26 12:54:00,87.8,72.7,29.87,SW,227,0.0,5.0,61,0.00,,---,0.00,VWS V14.01,2013-06-26 16:54:00,
2013-06-26 12:59:00,87.3,72.7,29.88,WNW,292,4.0,6.0,62,0.00,,---,0.00,VWS V14.01,2013-06-26 16:59:00,
2013-06-26 13:04:00,86.4,72.3,29.88,WNW,292,1.0,2.0,63,0.00,,---,0.00,VWS V14.01,2013-06-26 17:04:00,
2013-06-26 13:09:00,85.8,72.2,29.88,SW,221,3.0,5.0,64,0.00,,---,0.00,VWS V14.01,2013-06-26 17:09:00,
2013-06-26 13:14:00,84.8,73.1,29.89,SW,232,9.0,9.0,68,0.00,,---,0.00,VWS V14.01,2013-06-26 17:14:00,
2013-06-26 13:19:00,82.4,72.1,29.90,SSW,198,15.0,17.0,71,0.00,,---,0.00,VWS V14.01,2013-06-26 17:19:00,
2013-06-26 13:24:00,78.1,69.9,29.91,South,180,10.0,18.0,76,0.02,,---,0.02,VWS V14.01,2013-06-26 17:24:00,
2013-06-26 13:29:00,74.8,68.6,29.90,South,179,5.0,18.0,81,0.05,,---,0.05,VWS V14.01,2013-06-26 17:29:00,
2013-06-26 13:34:00,72.4,66.9,29.89,SSW,203,14.0,17.0,83,0.06,,---,0.06,VWS V14.01,2013-06-26 17:34:00,
2013-06-26 13:39:00,70.2,65.1,29.89,SSE,164,6.0,18.0,84,0.06,,---,0.06,VWS V14.01,2013-06-26 17:39:00,
2013-06-26 13:44:00,69.5,65.5,29.90,South,173,4.0,18.0,87,0.06,,---,0.06,VWS V14.01,2013-06-26 17:44:00,
2013-06-26 13:49:00,69.4,65.7,29.89,SSE,165,2.0,18.0,88,0.06,,---,0.06,VWS V14.01,2013-06-26 17:49:00,
2013-06-26 13:54:00,69.5,65.8,29.89,SSE,166,0.0,18.0,88,0.06,,---,0.06,VWS V14.01,2013-06-26 17:54:00,
2013-06-26 13:59:00,69.4,66.0,29.90,NW,304,2.0,18.0,89,0.06,,---,0.06,VWS V14.01,2013-06-26 17:59:00,
2013-06-26 14:04:00,69.3,65.9,29.91,NW,325,2.0,7.0,89,0.06,,---,0.06,VWS V14.01,2013-06-26 18:04:00,
2013-06-26 14:09:00,69.2,65.8,29.90,West,277,1.0,7.0,89,0.06,,---,0.06,VWS V14.01,2013-06-26 18:09:00,
2013-06-26 14:14:00,69.0,65.6,29.91,SW,229,1.0,7.0,89,0.06,,---,0.06,VWS V14.01,2013-06-26 18:14:00,
2013-06-26 14:19:00,68.9,65.8,29.92,WSW,239,0.0,7.0,90,0.06,,---,0.06,VWS V14.01,2013-06-26 18:19:00,
2013-06-26 14:24:00,68.9,65.8,29.91,SW,221,0.0,7.0,90,0.06,,---,0.06,VWS V14.01,2013-06-26 18:24:00,
2013-06-26 14:29:00,68.9,65.8,29.92,SW,221,0.0,7.0,90,0.06,,---,0.06,VWS V14.01,2013-06-26 18:29:00,
2013-06-26 14:34:00,69.1,66.1,29.91,ESE,122,3.0,3.0,90,0.01,,---,0.06,VWS V14.01,2013-06-26 18:34:00,
2013-06-26 14:39:00,69.0,65.9,29.91,ESE,122,0.0,4.0,90,0.01,,---,0.06,VWS V14.01,2013-06-26 18:39:00,
2013-06-26 14:44:00,69.0,65.9,29.91,ESE,122,0.0,4.0,90,0.01,,---,0.06,VWS V14.01,2013-06-26 18:44:00,
2013-06-26 14:49:00,69.0,65.9,29.90,ESE,122,0.0,4.0,90,0.01,,---,0.06,VWS V14.01,2013-06-26 18:49:00,
2013-06-26 14:54:00,69.2,66.2,29.89,ESE,122,0.0,4.0,90,0.01,,---,0.06,VWS V14.01,2013-06-26 18:54:00,
2013-06-26 14:59:00,69.6,66.5,29.88,ESE,122,0.0,4.0,90,0.01,,---,0.06,VWS V14.01,2013-06-26 18:59:00,
2013-06-26 15:04:00,69.9,66.8,29.87,ESE,122,0.0,1.0,90,0.00,,---,0.06,VWS V14.01,2013-06-26 19:04:00,
2013-06-26 15:09:00,70.2,67.1,29.87,ESE,122,0.0,1.0,90,0.00,,---,0.06,VWS V14.01,2013-06-26 19:09:00,
2013-06-26 15:14:00,70.4,67.3,29.88,ESE,122,0.0,1.0,90,0.00,,---,0.06,VWS V14.01,2013-06-26 19:14:00,
2013-06-26 15:19:00,70.8,67.7,29.87,ESE,122,0.0,2.0,90,0.00,,---,0.06,VWS V14.01,2013-06-26 19:19:00,
2013-06-26 15:24:00,71.4,68.3,29.88,South,175,0.0,3.0,90,0.00,,---,0.06,VWS V14.01,2013-06-26 19:24:00,
2013-06-26 15:29:00,72.0,68.9,29.90,WSW,240,0.0,4.0,90,0.00,,---,0.06,VWS V14.01,2013-06-26 19:29:00,
2013-06-26 15:34:00,72.2,68.8,29.91,West,267,2.0,6.0,89,0.00,,---,0.06,VWS V14.01,2013-06-26 19:34:00,
2013-06-26 15:39:00,72.1,68.7,29.90,NW,315,0.0,7.0,89,0.12,,---,0.18,VWS V14.01,2013-06-26 19:39:00,
2013-06-26 15:44:00,71.7,68.3,29.90,NNE,29,5.0,12.0,89,0.15,,---,0.21,VWS V14.01,2013-06-26 19:44:00,
2013-06-26 15:49:00,71.5,68.4,29.89,NNE,30,0.0,12.0,90,0.24,,---,0.30,VWS V14.01,2013-06-26 19:49:00,
2013-06-26 15:54:00,71.7,68.6,29.89,NNE,31,0.0,12.0,90,0.25,,---,0.31,VWS V14.01,2013-06-26 19:54:00,
2013-06-26 15:59:00,71.7,68.9,29.88,SE,127,4.0,12.0,91,0.25,,---,0.31,VWS V14.01,2013-06-26 19:59:00,
2013-06-26 16:04:00,71.4,68.6,29.88,ESE,104,3.0,6.0,91,0.25,,---,0.31,VWS V14.01,2013-06-26 20:04:00,
2013-06-26 16:09:00,71.2,68.4,29.88,SE,138,4.0,6.0,91,0.25,,---,0.31,VWS V14.01,2013-06-26 20:09:00,
2013-06-26 16:14:00,71.3,68.5,29.88,South,172,0.0,6.0,91,0.25,,---,0.31,VWS V14.01,2013-06-26 20:14:00,
2013-06-26 16:19:00,71.4,68.6,29.88,SSE,152,2.0,6.0,91,0.26,,---,0.32,VWS V14.01,2013-06-26 20:19:00,
2013-06-26 16:24:00,71.6,68.8,29.87,SE,126,6.0,6.0,91,0.28,,---,0.34,VWS V14.01,2013-06-26 20:24:00,
2013-06-26 16:29:00,71.5,68.7,29.88,SE,142,0.0,7.0,91,0.30,,---,0.36,VWS V14.01,2013-06-26 20:29:00,
2013-06-26 16:34:00,71.5,68.7,29.87,South,170,4.0,4.0,91,0.30,,---,0.36,VWS V14.01,2013-06-26 20:34:00,
2013-06-26 16:39:00,71.8,69.0,29.87,SE,146,2.0,4.0,91,0.30,,---,0.36,VWS V14.01,2013-06-26 20:39:00,
2013-06-26 16:44:00,72.0,69.2,29.88,SE,130,2.0,5.0,91,0.30,,---,0.36,VWS V14.01,2013-06-26 20:44:00,
2013-06-26 16:49:00,72.3,69.5,29.87,SE,142,0.0,5.0,91,0.30,,---,0.36,VWS V14.01,2013-06-26 20:49:00,
2013-06-26 16:54:00,72.6,69.8,29.87,SE,142,0.0,5.0,91,0.30,,---,0.36,VWS V14.01,2013-06-26 20:54:00,
2013-06-26 16:59:00,72.8,70.0,29.87,SE,142,0.0,5.0,91,0.30,,---,0.36,VWS V14.01,2013-06-26 20:59:00,
2013-06-26 17:04:00,73.3,70.5,29.87,SE,141,0.0,1.0,91,0.05,,---,0.36,VWS V14.01,2013-06-26 21:04:00,
2013-06-26 17:09:00,73.8,71.0,29.87,ESE,122,2.0,2.0,91,0.05,,---,0.36,VWS V14.01,2013-06-26 21:09:00,
2013-06-26 17:14:00,73.9,71.1,29.87,NNE,17,3.0,3.0,91,0.05,,---,0.36,VWS V14.01,2013-06-26 21:14:00,
2013-06-26 17:19:00,74.2,71.4,29.87,NNE,15,1.0,4.0,91,0.05,,---,0.36,VWS V14.01,2013-06-26 21:19:00,
2013-06-26 17:24:00,74.4,71.3,29.87,North,355,3.0,4.0,90,0.05,,---,0.36,VWS V14.01,2013-06-26 21:24:00,
2013-06-26 17:29:00,74.7,71.6,29.87,North,355,2.0,4.0,90,0.05,,---,0.36,VWS V14.01,2013-06-26 21:29:00,
2013-06-26 17:34:00,74.9,71.8,29.86,North,11,2.0,4.0,90,0.00,,---,0.36,VWS V14.01,2013-06-26 21:34:00,
2013-06-26 17:39:00,75.1,72.0,29.86,NNW,328,3.0,4.0,90,0.00,,---,0.36,VWS V14.01,2013-06-26 21:39:00,
2013-06-26 17:44:00,75.3,72.2,29.86,NNE,24,0.0,5.0,90,0.00,,---,0.36,VWS V14.01,2013-06-26 21:44:00,
2013-06-26 17:49:00,75.8,72.3,29.86,NW,312,0.0,5.0,89,0.00,,---,0.36,VWS V14.01,2013-06-26 21:49:00,
2013-06-26 17:54:00,76.0,71.9,29.85,NW,317,0.0,5.0,87,0.00,,---,0.36,VWS V14.01,2013-06-26 21:54:00,
2013-06-26 17:59:00,76.0,71.9,29.86,NW,317,0.0,5.0,87,0.00,,---,0.36,VWS V14.01,2013-06-26 21:59:00,
2013-06-26 18:04:00,76.0,72.2,29.85,NW,317,0.0,1.0,88,0.00,,---,0.36,VWS V14.01,2013-06-26 22:04:00,
2013-06-26 18:09:00,76.0,71.9,29.85,NW,317,0.0,1.0,87,0.00,,---,0.36,VWS V14.01,2013-06-26 22:09:00,
2013-06-26 18:14:00,75.9,71.8,29.84,NW,317,0.0,2.0,87,0.00,,---,0.36,VWS V14.01,2013-06-26 22:14:00,
2013-06-26 18:19:00,76.0,72.2,29.84,NW,317,0.0,2.0,88,0.00,,---,0.36,VWS V14.01,2013-06-26 22:19:00,
2013-06-26 18:24:00,76.0,72.2,29.84,NNW,334,0.0,2.0,88,0.00,,---,0.36,VWS V14.01,2013-06-26 22:24:00,
2013-06-26 18:29:00,76.1,72.3,29.84,NNW,334,0.0,2.0,88,0.00,,---,0.36,VWS V14.01,2013-06-26 22:29:00,
2013-06-26 18:34:00,76.3,72.5,29.85,NNW,334,0.0,1.0,88,0.00,,---,0.36,VWS V14.01,2013-06-26 22:34:00,
2013-06-26 18:39:00,76.8,72.6,29.85,NNW,334,0.0,1.0,87,0.00,,---,0.36,VWS V14.01,2013-06-26 22:39:00,
2013-06-26 18:44:00,78.2,73.3,29.85,NNW,334,0.0,1.0,85,0.00,,---,0.36,VWS V14.01,2013-06-26 22:44:00,
2013-06-26 18:49:00,79.1,73.5,29.84,NNW,334,0.0,1.0,83,0.00,,---,0.36,VWS V14.01,2013-06-26 22:49:00,
2013-06-26 18:54:00,80.1,73.8,29.84,NNW,334,0.0,1.0,81,0.00,,---,0.36,VWS V14.01,2013-06-26 22:54:00,
2013-06-26 18:59:00,80.8,73.7,29.84,NNW,333,0.0,1.0,79,0.00,,---,0.36,VWS V14.01,2013-06-26 22:59:00,
2013-06-26 19:04:00,81.1,73.6,29.84,NNW,333,0.0,1.0,78,0.00,,---,0.36,VWS V14.01,2013-06-26 23:04:00,
2013-06-26 19:09:00,81.3,73.8,29.84,NNW,333,0.0,1.0,78,0.00,,---,0.36,VWS V14.01,2013-06-26 23:09:00,
2013-06-26 19:14:00,81.5,73.6,29.84,NNW,333,0.0,1.0,77,0.00,,---,0.36,VWS V14.01,2013-06-26 23:14:00,
2013-06-26 19:19:00,81.2,73.3,29.84,NW,310,1.0,3.0,77,0.00,,---,0.36,VWS V14.01,2013-06-26 23:19:00,
2013-06-26 19:24:00,80.9,73.4,29.84,NW,310,1.0,3.0,78,0.00,,---,0.36,VWS V14.01,2013-06-26 23:24:00,
2013-06-26 19:29:00,80.6,73.5,29.84,NW,311,0.0,3.0,79,0.00,,---,0.36,VWS V14.01,2013-06-26 23:29:00,
2013-06-26 19:34:00,80.3,73.2,29.84,NW,311,0.0,1.0,79,0.00,,---,0.36,VWS V14.01,2013-06-26 23:34:00,
2013-06-26 19:39:00,79.5,72.8,29.84,NW,311,0.0,2.0,80,0.00,,---,0.36,VWS V14.01,2013-06-26 23:39:00,
2013-06-26 19:44:00,78.8,72.8,29.84,NW,311,0.0,2.0,82,0.00,,---,0.36,VWS V14.01,2013-06-26 23:44:00,
2013-06-26 19:49:00,78.7,73.5,29.83,NW,311,0.0,2.0,84,0.00,,---,0.36,VWS V14.01,2013-06-26 23:49:00,
2013-06-26 19:54:00,78.3,73.1,29.84,NW,310,0.0,2.0,84,0.00,,---,0.36,VWS V14.01,2013-06-26 23:54:00,
2013-06-26 19:59:00,77.8,72.6,29.84,NW,310,0.0,2.0,84,0.00,,---,0.36,VWS V14.01,2013-06-26 23:59:00,
2013-06-26 20:04:00,77.3,72.8,29.83,NW,311,0.0,0.0,86,0.00,,---,0.36,VWS V14.01,2013-06-27 00:04:00,
2013-06-26 20:09:00,76.8,72.6,29.83,NW,313,0.0,0.0,87,0.00,,---,0.36,VWS V14.01,2013-06-27 00:09:00,
2013-06-26 20:14:00,76.5,72.7,29.83,NW,313,0.0,0.0,88,0.00,,---,0.36,VWS V14.01,2013-06-27 00:14:00,
2013-06-26 20:19:00,76.4,72.6,29.84,NW,313,0.0,0.0,88,0.00,,---,0.36,VWS V14.01,2013-06-27 00:19:00,
2013-06-26 20:24:00,76.3,72.5,29.83,NW,313,0.0,1.0,88,0.00,,---,0.36,VWS V14.01,2013-06-27 00:24:00,
2013-06-26 20:29:00,75.8,72.0,29.84,NW,320,0.0,1.0,88,0.00,,---,0.36,VWS V14.01,2013-06-27 00:29:00,
2013-06-26 20:34:00,75.5,72.0,29.84,NW,320,0.0,0.0,89,0.00,,---,0.36,VWS V14.01,2013-06-27 00:34:00,
2013-06-26 20:39:00,75.0,71.5,29.84,WSW,257,0.0,1.0,89,0.00,,---,0.36,VWS V14.01,2013-06-27 00:39:00,
2013-06-26 20:44:00,74.7,71.2,29.85,WSW,258,0.0,1.0,89,0.00,,---,0.36,VWS V14.01,2013-06-27 00:44:00,
2013-06-26 20:49:00,74.5,71.1,29.85,WSW,257,0.0,1.0,89,0.00,,---,0.36,VWS V14.01,2013-06-27 00:49:00,
2013-06-26 20:54:00,74.2,71.1,29.84,SSE,157,0.0,1.0,90,0.00,,---,0.36,VWS V14.01,2013-06-27 00:54:00,
2013-06-26 20:59:00,74.1,71.0,29.84,SSE,157,0.0,1.0,90,0.00,,---,0.36,VWS V14.01,2013-06-27 00:59:00,
2013-06-26 21:04:00,73.8,70.7,29.84,SSE,156,0.0,1.0,90,0.00,,---,0.36,VWS V14.01,2013-06-27 01:04:00,
2013-06-26 21:09:00,73.6,70.5,29.84,SSE,157,0.0,1.0,90,0.00,,---,0.36,VWS V14.01,2013-06-27 01:09:00,
2013-06-26 21:14:00,73.4,70.6,29.84,SSE,157,0.0,1.0,91,0.00,,---,0.36,VWS V14.01,2013-06-27 01:14:00,
2013-06-26 21:19:00,73.2,70.4,29.84,SSE,157,0.0,1.0,91,0.00,,---,0.36,VWS V14.01,2013-06-27 01:19:00,
2013-06-26 21:24:00,73.2,70.4,29.85,SSE,156,0.0,1.0,91,0.00,,---,0.36,VWS V14.01,2013-06-27 01:24:00,
2013-06-26 21:29:00,73.0,70.2,29.85,SSE,157,0.0,1.0,91,0.00,,---,0.36,VWS V14.01,2013-06-27 01:29:00,
2013-06-26 21:34:00,72.9,70.1,29.85,SSE,157,0.0,0.0,91,0.00,,---,0.36,VWS V14.01,2013-06-27 01:34:00,
2013-06-26 21:39:00,72.7,69.9,29.85,SSE,156,0.0,0.0,91,0.00,,---,0.36,VWS V14.01,2013-06-27 01:39:00,
2013-06-26 21:44:00,72.4,69.6,29.85,SSE,156,0.0,0.0,91,0.00,,---,0.36,VWS V14.01,2013-06-27 01:44:00,
2013-06-26 21:49:00,72.1,69.3,29.86,SSE,156,0.0,0.0,91,0.00,,---,0.36,VWS V14.01,2013-06-27 01:49:00,
2013-06-26 21:54:00,71.7,68.9,29.85,SSE,157,0.0,1.0,91,0.00,,---,0.36,VWS V14.01,2013-06-27 01:54:00,
2013-06-26 21:59:00,71.5,68.7,29.85,SSE,157,0.0,1.0,91,0.00,,---,0.36,VWS V14.01,2013-06-27 01:59:00,
2013-06-26 22:04:00,71.3,68.5,29.85,SSE,157,0.0,0.0,91,0.00,,---,0.36,VWS V14.01,2013-06-27 02:04:00,
2013-06-26 22:09:00,71.3,68.5,29.85,SSE,157,0.0,1.0,91,0.00,,---,0.36,VWS V14.01,2013-06-27 02:09:00,
2013-06-26 22:14:00,71.2,68.4,29.85,SSE,157,0.0,2.0,91,0.00,,---,0.36,VWS V14.01,2013-06-27 02:14:00,
2013-06-26 22:19:00,71.1,68.3,29.84,SSE,157,0.0,2.0,91,0.00,,---,0.36,VWS V14.01,2013-06-27 02:19:00,
2013-06-26 22:24:00,71.0,68.2,29.84,SSE,157,0.0,2.0,91,0.00,,---,0.36,VWS V14.01,2013-06-27 02:24:00,
2013-06-26 22:29:00,70.9,68.2,29.84,SSE,156,0.0,2.0,91,0.00,,---,0.36,VWS V14.01,2013-06-27 02:29:00,
2013-06-26 22:34:00,70.8,68.1,29.85,SSE,156,0.0,0.0,91,0.00,,---,0.36,VWS V14.01,2013-06-27 02:34:00,
2013-06-26 22:39:00,70.7,67.9,29.84,SSE,157,0.0,0.0,91,0.00,,---,0.36,VWS V14.01,2013-06-27 02:39:00,
2013-06-26 22:44:00,70.5,68.1,29.85,SSE,157,0.0,0.0,92,0.00,,---,0.36,VWS V14.01,2013-06-27 02:44:00,
2013-06-26 22:49:00,70.4,67.7,29.85,SSE,157,0.0,0.0,91,0.00,,---,0.36,VWS V14.01,2013-06-27 02:49:00,
2013-06-26 22:54:00,70.3,67.6,29.84,SSE,157,0.0,0.0,91,0.00,,---,0.36,VWS V14.01,2013-06-27 02:54:00,
2013-06-26 22:59:00,70.1,67.7,29.84,SSE,156,0.0,0.0,92,0.00,,---,0.36,VWS V14.01,2013-06-27 02:59:00,
2013-06-26 23:04:00,70.0,67.6,29.84,SSE,156,0.0,0.0,92,0.00,,---,0.36,VWS V14.01,2013-06-27 03:04:00,
2013-06-26 23:09:00,69.9,67.5,29.84,SSE,157,0.0,0.0,92,0.00,,---,0.36,VWS V14.01,2013-06-27 03:09:00,
2013-06-26 23:14:00,69.8,67.4,29.84,SSE,157,2.0,3.0,92,0.00,,---,0.36,VWS V14.01,2013-06-27 03:14:00,
2013-06-26 23:19:00,69.7,67.3,29.84,SSE,157,0.0,3.0,92,0.00,,---,0.36,VWS V14.01,2013-06-27 03:19:00,
2013-06-26 23:24:00,69.6,67.2,29.84,SSE,156,1.0,3.0,92,0.00,,---,0.36,VWS V14.01,2013-06-27 03:24:00,
2013-06-26 23:29:00,69.5,67.1,29.84,SSE,156,0.0,3.0,92,0.00,,---,0.36,VWS V14.01,2013-06-27 03:29:00,
2013-06-26 23:34:00,69.4,67.0,29.84,SSE,156,0.0,1.0,92,0.00,,---,0.36,VWS V14.01,2013-06-27 03:34:00,
2013-06-26 23:39:00,69.4,67.0,29.84,SSE,157,1.0,1.0,92,0.00,,---,0.36,VWS V14.01,2013-06-27 03:39:00,
2013-06-26 23:44:00,69.5,67.1,29.83,SE,132,1.0,4.0,92,0.00,,---,0.36,VWS V14.01,2013-06-27 03:44:00,
2013-06-26 23:49:00,69.5,67.1,29.83,SE,132,0.0,4.0,92,0.00,,---,0.36,VWS V14.01,2013-06-27 03:49:00,
2013-06-26 23:54:00,69.5,67.1,29.83,SE,132,0.0,4.0,92,0.00,,---,0.36,VWS V14.01,2013-06-27 03:54:00,
2013-06-26 23:58:00,69.4,67.0,29.84,SE,132,0.0,4.0,92,0.00,,---,0.36,VWS V14.01,2013-06-27 03:58:00,